Main page
METAR-TAF:

METAR-TAF

Airports :

Niederstetten Air Base

Niederstetten, Germany

latitude: 49-24N, longitude: 009-58E, elevation: 468 m

Current weather observation

The report was made 47 minutes ago, at 18:20 UTC
Wind 6 kt from the West/Southwest
Temperature 8°C
Humidity 87%
Pressure 1030 hPa
Visibility 10 km or more
Few clouds at a height of 2000 ft

METAR: ETHN 131820Z 25006KT 9999 FEW020 08/06 Q1030 BLU+

Time: 20:07 (19:07 UTC)

Forecast

The report was made 3 hours and 50 minutes ago, at 15:17 UTC
Forecast valid from 13 at 15 UTC to 13 at 24 UTC
Wind 10 kt from the West/Southwest
Visibility 10 km or more
Few clouds at a height of 2500 ft
Broken clouds at a height of 3000 ft
Becoming
from 13 at 20 UTC to 13 at 22 UTC
Wind 7 kt from the West/Southwest
Visibility: 1600 m
Broken clouds at a height of 100 ft
fog

TAF: ETHN 131517Z 1315/1324 24010KT 9999 NSW FEW025 BKN030 BECMG 1320/1322 24007KT 0800 FG BKN001 CANCEL 1600

Weather observations and forecasts of more than 4000 airports (METAR and TAF reports).

The available stations are represented by yellow and red dots on the map.

Hover mouse over dot to see the name of the station.

Then click to see weather observations and forecasts.

To change the map : click on the green buttons with a black cross to zoom in, on the green button with a dash to zoom out, or on the green arrows for adjacent maps.


METAR-TAF: